• Join FlightAware (Why Join?)
  • Login
  • US Flag 
09:27PM EDT


 

Airport Tracker/Info


-or-


 

Live Flight TrackerFlight Track Log ✈ AWE1940 ✈ 18-Jun-2013 ✈ KCLT - KALB

Flight Track Log - Related Links

Times and Time Zones

All times are in EDT time to prevent confusion due to time zone crossing. See the AWE1940 flight status page for this flight to view local times or setup timezone preferences in your user account.

Time Position Orientation Groundspeed Altitude Reporting Facility
EDT Latitude Longitude Course Direction KTS MPH feet Rate Location/Type
11:28PM 35.1933 -80.9533 39° Northeast 176 203 1,400  Level Atlanta Center
11:29PM 35.1558 -80.9522 179° South 196 226 2,500 2,040 Climbing Atlanta Center
11:29PM 35.1278 -80.9989 234° Southwest 223 257 4,600 2,400 Climbing Atlanta Center
11:30PM 35.1686 -81.0533 313° West 242 278 6,900 2,100 Climbing Atlanta Center
11:31PM 35.2580 -81.2167 North  Level FlightAware Approximate
11:31PM 35.2297 -81.0689 348° North 265 305 8,800  Level Atlanta Center
11:32PM 35.3257 -81.1002 52° Northeast  Level FlightAware Approximate
11:32PM 35.3119 -81.0278 22° Northeast 271 312 11,100  Level Atlanta Center
11:33PM 35.4006 -80.9828 39° Northeast  Level FlightAware Approximate
11:33PM 35.4047 -80.9836 21° North 325 374 14,000  Level Atlanta Center
11:34PM 35.5017 -80.9367 22° Northeast 361 415 16,900 2,640 Climbing Atlanta Center
11:35PM 35.6047 -80.8894 20° North 381 438 19,300 2,400 Climbing Atlanta Center
11:36PM 35.7119 -80.8342 23° Northeast 399 459 21,700 2,160 Climbing Atlanta Center
11:37PM 35.8283 -80.8244 North 410 472 23,700 2,040 Climbing Atlanta Center
11:38PM 35.9481 -80.8506 350° North 410 472 25,800 1,920 Climbing Atlanta Center
11:39PM 36.0708 -80.8431 North 429 494 27,600 1,560 Climbing Atlanta Center
11:40PM 36.1975 -80.8225 North 447 514 29,000 1,620 Climbing Atlanta Center
11:41PM 36.3306 -80.8069 North 467 537 30,900 1,740 Climbing Atlanta Center
11:42PM 36.4594 -80.7914 North 467 537 32,500 1,800 Climbing Atlanta Center
11:43PM 36.5883 -80.7758 North 461 531 34,500 1,200 Climbing Atlanta Center
11:44PM 36.7256 -80.7600 North 461 531 35,000 240 Climbing Atlanta Center
11:45PM 36.8461 -80.7472 North 448 516 35,000  Level Atlanta Center
11:46PM 36.9606 -80.7319 North 448 516 35,000  Level Atlanta Center
11:48PM 37.1697 -80.6928 North 467 537 35,000  Level Washington Center
11:49PM 37.3053 -80.6444 16° North 462 532 35,000  Level Washington Center
11:50PM 37.4322 -80.6031 15° North 462 532 35,000  Level Washington Center
11:51PM 37.5592 -80.5617 14° North 462 532 35,000  Level Washington Center
11:52PM 37.6839 -80.5200 15° North 462 532 35,000  Level Washington Center
11:53PM 37.7983 -80.4803 15° North 462 532 35,000  Level Washington Center
11:54PM 37.9253 -80.4383 15° North 467 537 35,000  Level Washington Center
11:55PM 38.0500 -80.3939 16° North 461 531 35,000  Level Washington Center
11:56PM 38.1747 -80.3517 15° North 461 531 35,000  Level Washington Center
11:57PM 38.2994 -80.3092 15° North 461 531 35,000  Level Washington Center
11:59PM 38.5389 -80.2169 17° North 471 542 35,000  Level Cleveland Center
12:00AM 38.6658 -80.1764 14° North 471 542 35,000  Level Cleveland Center
12:01AM 38.7906 -80.1303 16° North 471 542 35,000  Level Cleveland Center
12:02AM 38.9156 -80.0922 13° North 466 536 35,000  Level Cleveland Center
12:03AM 39.0386 -80.0886 North 454 522 35,000  Level Cleveland Center
12:04AM 39.1594 -80.0986 356° North 440 506 35,000  Level Cleveland Center
12:05AM 39.2844 -80.1058 357° North 440 506 35,000  Level Cleveland Center
12:06AM 39.4056 -80.1131 357° North 440 506 35,000  Level Cleveland Center
12:07AM 39.5303 -80.0906 North 446 513 35,000  Level Cleveland Center
12:08AM 39.6278 -79.9550 47° Northeast 449 517 35,000  Level Cleveland Center
12:09AM 39.7394 -79.8433 38° Northeast 476 548 35,000  Level Cleveland Center
12:10AM 39.8492 -79.7314 38° Northeast 492 566 35,000  Level Cleveland Center
12:11AM 39.9397 -79.5839 51° Northeast 497 572 35,000  Level Cleveland Center
12:12AM 40.0303 -79.4389 51° Northeast 508 585 35,000  Level Cleveland Center
12:13AM 40.1100 -79.3044 52° Northeast 513 590 35,000  Level Cleveland Center
12:14AM 40.2022 -79.1614 50° Northeast 513 590 35,000  Level Cleveland Center
12:15AM 40.2939 -79.0125 51° Northeast 518 596 35,000  Level Cleveland Center
12:16AM 40.3836 -78.8686 51° Northeast 518 596 35,000  Level Cleveland Center
12:17AM 40.4750 -78.7189 51° Northeast 518 596 35,000  Level Cleveland Center
12:19AM 40.6908 -78.3614 51° Northeast 526 605 35,000  Level New York Center
12:20AM 40.7908 -78.1997 51° Northeast 526 605 35,000  Level New York Center
12:21AM 40.8792 -78.0528 51° Northeast 526 605 35,000 -1,140 Level New York Center
12:22AM 40.9594 -77.8992 55° Northeast 514 592 32,800 -2,580 Descending New York Center
12:23AM 41.0311 -77.7444 58° Northeast 502 578 30,000 -2,760 Descending New York Center
12:24AM 41.1044 -77.5922 57° Northeast 497 572 27,300 -1,920 Descending New York Center
12:25AM 41.1781 -77.4342 58° Northeast 497 572 26,200 -1,200 Descending New York Center
12:26AM 41.2472 -77.2781 59° Northeast 492 566 25,000 -780 Descending New York Center
12:27AM 41.3111 -77.1378 59° Northeast 463 533 24,700 -1,020 Descending New York Center
12:28AM 41.3747 -77.0000 58° Northeast 445 512 23,000 -900 Descending New York Center
12:29AM 41.4381 -76.8619 59° Northeast 434 499 23,000  Level New York Center
12:30AM 41.4994 -76.7206 60° Northeast 429 494 23,000  Level New York Center
12:31AM 41.5647 -76.5794 58° Northeast 429 494 23,000  Level New York Center
12:32AM 41.6161 -76.4617 60° Northeast 435 501 23,000  Level New York Center
12:33AM 41.6886 -76.2986 59° Northeast 447 514 23,000  Level New York Center
12:34AM 41.7558 -76.1483 59° Northeast 458 527 23,000  Level New York Center
12:37AM 41.9156 -75.7828 59° Northeast 469 540 23,000  Level Boston Center
12:38AM 41.9803 -75.6325 60° Northeast 469 540 23,000  Level Boston Center
12:39AM 42.0469 -75.4792 60° Northeast 469 540 23,000  Level Boston Center
12:40AM 42.1114 -75.3283 60° Northeast 469 540 23,000  Level Boston Center
12:41AM 42.1733 -75.1800 61° Northeast 464 534 23,000 -540 Level Boston Center
12:42AM 42.2286 -75.0533 59° Northeast 450 518 22,000 -1,620 Descending Boston Center
12:43AM 42.2881 -74.9128 60° Northeast 437 503 19,800 -2,400 Descending Boston Center
12:44AM 42.3472 -74.7744 60° Northeast 422 486 17,300 -2,640 Descending Boston Center
12:45AM 42.4042 -74.6361 61° Northeast 399 459 14,600 -2,460 Descending Boston Center
12:46AM 42.4522 -74.5253 60° Northeast 383 441 12,400 -1,800 Descending Boston Center
12:47AM 42.5044 -74.3947 61° Northeast 361 415 11,100 -720 Descending Boston Center
12:48AM 42.5481 -74.2889 61° Northeast 356 410 11,000 -540 Descending Boston Center
12:48AM 42.5786 -74.1939 66° East 308 354 10,200 -1,440 Descending Boston Center
12:49AM 42.5700 -74.0808 96° East 293 337 8,400 -1,860 Descending Boston Center
12:50AM 42.5589 -73.9819 99° East 256 295 6,500 -1,920 Descending Boston Center
12:51AM 42.5494 -73.8886 98° East 216 249 4,600 -1,740 Descending Boston Center
12:52AM 42.5692 -73.8214 68° East 188 216 3,100 -1,080 Descending Boston Center
12:54AM 42.6153 -73.8028 17° North 170 196 2,500 -660 Descending Boston Center
12:55AM 42.6569 -73.8008 North 145 167 1,800 -660 Descending Boston Center
12:56AM 42.6881 -73.8044 355° North 114 131 1,200 -600 Descending Boston Center
12:57AM 42.7236 -73.8081 356° North 116 133 600 -600 Descending Boston Center